Time;durP1;ratioP1;P1;durP2;ratioP2;P2;SDS_P1;SDS_P2;PMS_P1;PMS_P2;Temp;Humidity;BMP_temperature;BMP_pressure;BME280_temperature;BME280_humidity;BME280_pressure;Samples;Min_cycle;Max_cycle;Signal;HPM_P1;HPM_P2
2021/10/27 00:00:07;;;;;;;3.42;3.13;;;8.30;99.90;;;;;;4995367;28;20220;-80
2021/10/27 00:02:34;;;;;;;3.67;3.35;;;8.30;99.90;;;;;;4992168;28;20221;-80
2021/10/27 00:05:01;;;;;;;3.95;3.65;;;8.30;99.90;;;;;;4993017;28;20228;-84
2021/10/27 00:07:30;;;;;;;3.40;3.20;;;8.30;99.90;;;;;;4985127;28;20321;-81
2021/10/27 00:09:57;;;;;;;3.38;3.17;;;8.30;99.90;;;;;;4994747;28;20217;-83
2021/10/27 00:12:24;;;;;;;3.40;3.20;;;8.30;99.90;;;;;;4992306;28;20885;-81
2021/10/27 00:14:51;;;;;;;3.53;3.33;;;8.30;99.90;;;;;;4990905;28;20219;-80
2021/10/27 00:17:18;;;;;;;3.47;3.20;;;8.30;99.90;;;;;;4988883;28;20221;-87
2021/10/27 00:19:45;;;;;;;2.75;2.63;;;8.30;99.90;;;;;;4991764;28;20466;-80
2021/10/27 00:22:13;;;;;;;3.58;3.28;;;8.30;99.90;;;;;;4996214;28;20235;-81
2021/10/27 00:24:41;;;;;;;3.28;2.97;;;8.30;99.90;;;;;;4989327;28;20800;-80
2021/10/27 00:27:09;;;;;;;3.45;3.15;;;8.30;99.90;;;;;;4991551;28;20232;-79
2021/10/27 00:29:36;;;;;;;3.10;2.88;;;8.30;99.90;;;;;;4988814;28;20703;-80
2021/10/27 00:32:04;;;;;;;3.60;3.13;;;8.30;99.90;;;;;;4995037;28;20220;-81
2021/10/27 00:34:31;;;;;;;3.33;3.03;;;8.30;99.90;;;;;;4992799;28;20240;-83
2021/10/27 00:36:58;;;;;;;3.97;3.47;;;8.30;99.90;;;;;;4993256;28;20244;-82
2021/10/27 00:39:27;;;;;;;3.30;3.00;;;8.30;99.90;;;;;;4997312;28;20217;-82
2021/10/27 00:41:55;;;;;;;3.60;3.30;;;8.20;99.90;;;;;;4993420;28;20259;-83
2021/10/27 00:44:26;;;;;;;3.63;3.33;;;8.20;99.90;;;;;;4991741;28;20216;-86
2021/10/27 00:46:59;;;;;;;2.75;2.55;;;8.20;99.90;;;;;;4992175;28;20716;-79
2021/10/27 00:49:27;;;;;;;2.90;2.70;;;8.20;99.90;;;;;;4991859;28;20232;-82
2021/10/27 00:51:55;;;;;;;3.33;3.13;;;8.20;99.90;;;;;;4992250;28;20240;-79
2021/10/27 00:54:22;;;;;;;3.10;2.90;;;8.20;99.90;;;;;;4992167;28;20224;-80
2021/10/27 00:56:52;;;;;;;3.85;3.55;;;8.20;99.90;;;;;;4994592;28;20228;-83
2021/10/27 00:59:21;;;;;;;3.92;3.63;;;8.10;99.90;;;;;;4990565;28;20216;-82
2021/10/27 01:01:49;;;;;;;4.00;3.70;;;8.00;99.90;;;;;;4992603;28;20271;-87
2021/10/27 01:04:16;;;;;;;3.70;3.40;;;8.00;99.90;;;;;;4994373;28;20270;-80
2021/10/27 01:06:44;;;;;;;3.90;3.53;;;7.90;99.90;;;;;;4995756;28;20691;-83
2021/10/27 01:09:11;;;;;;;3.25;3.05;;;7.90;99.90;;;;;;4994805;28;20746;-80
2021/10/27 01:11:40;;;;;;;3.63;3.42;;;7.80;99.90;;;;;;4995566;28;20221;-80
2021/10/27 01:14:08;;;;;;;3.50;3.30;;;7.80;99.90;;;;;;4993032;28;20220;-82
2021/10/27 01:16:37;;;;;;;3.30;3.08;;;7.80;99.90;;;;;;4993179;28;20225;-82
2021/10/27 01:19:05;;;;;;;3.83;3.53;;;7.80;99.90;;;;;;4994547;28;20228;-80
2021/10/27 01:21:34;;;;;;;3.17;2.97;;;7.80;99.90;;;;;;4992521;28;20254;-80
2021/10/27 01:24:02;;;;;;;3.08;2.88;;;7.80;99.90;;;;;;4987251;28;20715;-83
2021/10/27 01:26:29;;;;;;;3.97;2.60;;;7.90;99.90;;;;;;4976498;28;20237;-87
2021/10/27 01:28:56;;;;;;;3.03;2.83;;;7.90;99.90;;;;;;4972423;28;20232;-80
2021/10/27 01:31:24;;;;;;;3.10;2.90;;;7.90;99.90;;;;;;4976329;28;20253;-81
2021/10/27 01:33:52;;;;;;;2.30;2.20;;;7.90;99.90;;;;;;4968441;28;20250;-83
2021/10/27 01:36:21;;;;;;;3.10;2.90;;;7.90;99.90;;;;;;4970771;28;20364;-82
2021/10/27 01:38:50;;;;;;;2.80;2.60;;;7.90;99.90;;;;;;4976137;28;20221;-86
2021/10/27 01:41:17;;;;;;;3.58;3.28;;;7.80;99.90;;;;;;4993789;28;20221;-79
2021/10/27 01:43:49;;;;;;;3.05;2.85;;;7.80;99.90;;;;;;4990295;28;20220;-83
2021/10/27 01:46:16;;;;;;;3.30;3.10;;;7.80;99.90;;;;;;4992484;28;20225;-80
2021/10/27 01:48:43;;;;;;;3.00;2.80;;;7.80;99.90;;;;;;5026807;23;20761;-78
2021/10/27 01:51:11;;;;;;;2.65;2.45;;;7.80;99.90;;;;;;5011557;28;20223;-77
2021/10/27 01:53:38;;;;;;;3.30;3.10;;;7.80;99.90;;;;;;5018190;28;20216;-78
2021/10/27 01:56:06;;;;;;;3.17;2.97;;;7.70;99.90;;;;;;5016715;28;22407;-76
2021/10/27 01:58:34;;;;;;;2.90;2.70;;;7.70;99.90;;;;;;5017490;28;20227;-77
2021/10/27 02:01:01;;;;;;;3.53;3.22;;;7.80;99.90;;;;;;5020083;28;20239;-78
2021/10/27 02:03:28;;;;;;;2.92;2.60;;;7.80;99.90;;;;;;5015942;28;20235;-78
2021/10/27 02:05:56;;;;;;;3.42;3.22;;;7.80;99.90;;;;;;5017126;28;20224;-77
2021/10/27 02:08:23;;;;;;;3.55;3.35;;;7.80;99.90;;;;;;5017055;28;20344;-77
2021/10/27 02:10:50;;;;;;;3.05;2.63;;;7.80;99.90;;;;;;5017774;28;20231;-79
2021/10/27 02:13:18;;;;;;;3.15;2.85;;;7.80;99.90;;;;;;5016200;28;20398;-78
2021/10/27 02:15:45;;;;;;;3.33;3.05;;;7.80;99.90;;;;;;5015108;28;20223;-79
2021/10/27 02:18:12;;;;;;;3.53;2.88;;;7.70;99.90;;;;;;5016591;28;20569;-77
2021/10/27 02:20:40;;;;;;;3.00;2.80;;;7.70;99.90;;;;;;5018380;28;20702;-77
2021/10/27 02:23:07;;;;;;;3.38;3.17;;;7.70;99.90;;;;;;5020720;28;20227;-78
2021/10/27 02:25:34;;;;;;;2.92;2.72;;;7.70;99.90;;;;;;5012628;28;20226;-78
2021/10/27 02:28:01;;;;;;;3.30;3.10;;;7.70;99.90;;;;;;5018598;28;20242;-78
2021/10/27 02:30:30;;;;;;;3.20;3.00;;;7.60;99.90;;;;;;5020799;28;20231;-77
2021/10/27 02:32:57;;;;;;;3.47;3.20;;;7.60;99.90;;;;;;5020323;28;20235;-77
2021/10/27 02:35:24;;;;;;;3.63;3.33;;;7.60;99.90;;;;;;5020065;28;20235;-77
2021/10/27 02:37:51;;;;;;;3.20;3.00;;;7.60;99.90;;;;;;5017775;28;20227;-77
2021/10/27 02:40:18;;;;;;;3.00;2.80;;;7.60;99.90;;;;;;5019969;28;20338;-78
2021/10/27 02:42:45;;;;;;;3.17;2.97;;;7.50;99.90;;;;;;5019722;28;20600;-77
2021/10/27 02:45:13;;;;;;;2.72;2.53;;;7.50;99.90;;;;;;5019436;28;20228;-78
2021/10/27 02:47:44;;;;;;;3.30;3.00;;;7.50;99.90;;;;;;5020512;28;20234;-79
2021/10/27 02:50:12;;;;;;;3.58;2.97;;;7.50;99.90;;;;;;5017050;28;20437;-77
2021/10/27 02:52:39;;;;;;;2.92;2.72;;;7.50;99.90;;;;;;5020076;28;20231;-77
2021/10/27 02:55:07;;;;;;;2.75;2.63;;;7.50;99.90;;;;;;5019886;28;20227;-78
2021/10/27 02:57:34;;;;;;;3.10;2.90;;;7.50;99.90;;;;;;5020649;28;20843;-78
2021/10/27 03:00:01;;;;;;;2.92;2.72;;;7.50;99.90;;;;;;5017816;28;20239;-77
2021/10/27 03:02:29;;;;;;;2.28;2.08;;;7.50;99.90;;;;;;5018507;28;20228;-77
2021/10/27 03:04:57;;;;;;;3.10;2.90;;;7.50;99.90;;;;;;5017932;28;20216;-78
2021/10/27 03:07:24;;;;;;;3.00;2.80;;;7.50;99.90;;;;;;5018636;28;20238;-77
2021/10/27 03:09:51;;;;;;;2.97;2.78;;;7.40;99.90;;;;;;5017553;28;20230;-77
2021/10/27 03:12:18;;;;;;;5.03;2.40;;;7.40;99.90;;;;;;5018567;28;20285;-77
2021/10/27 03:14:46;;;;;;;2.95;2.75;;;7.40;99.90;;;;;;5019506;28;20224;-78
2021/10/27 03:17:16;;;;;;;3.13;2.92;;;7.30;99.90;;;;;;5018220;28;20236;-77
2021/10/27 03:19:43;;;;;;;3.25;3.05;;;7.30;99.90;;;;;;5017879;28;20219;-77
2021/10/27 03:22:12;;;;;;;2.42;2.30;;;7.20;99.90;;;;;;5019627;28;21854;-77
2021/10/27 03:24:39;;;;;;;2.78;2.58;;;7.30;99.90;;;;;;5016910;28;20219;-79
2021/10/27 03:27:07;;;;;;;3.03;2.80;;;7.30;99.90;;;;;;5020370;28;20285;-79
2021/10/27 03:29:34;;;;;;;3.00;2.80;;;7.30;99.90;;;;;;5009677;28;20230;-77
2021/10/27 03:32:01;;;;;;;3.05;2.85;;;7.30;99.90;;;;;;5019082;28;20850;-77
2021/10/27 03:34:28;;;;;;;3.13;2.92;;;7.30;99.90;;;;;;5018321;28;20659;-77
2021/10/27 03:36:55;;;;;;;3.58;3.38;;;7.30;99.90;;;;;;5015829;28;20729;-78
2021/10/27 03:39:24;;;;;;;3.45;3.15;;;7.30;99.90;;;;;;5017032;28;20230;-78
2021/10/27 03:41:52;;;;;;;3.33;3.13;;;7.30;99.90;;;;;;5019693;28;20278;-77
2021/10/27 03:44:19;;;;;;;2.97;2.78;;;7.30;99.90;;;;;;5019765;28;20901;-78
2021/10/27 03:46:46;;;;;;;3.22;3.03;;;7.20;99.90;;;;;;5019180;28;20492;-78
2021/10/27 03:49:13;;;;;;;3.88;3.58;;;7.20;99.90;;;;;;5018674;28;20611;-78
2021/10/27 03:51:40;;;;;;;3.83;3.53;;;7.20;99.90;;;;;;5019874;28;20231;-77
2021/10/27 03:54:07;;;;;;;5.72;3.78;;;7.10;99.90;;;;;;5021268;28;20758;-77
2021/10/27 03:56:36;;;;;;;8.18;4.13;;;7.10;99.90;;;;;;5020823;28;20227;-78
2021/10/27 03:59:03;;;;;;;3.38;3.17;;;7.10;99.90;;;;;;5019453;28;20235;-77
2021/10/27 04:01:30;;;;;;;3.38;3.10;;;7.00;99.90;;;;;;5018773;28;20215;-78
2021/10/27 04:03:57;;;;;;;3.60;3.30;;;6.90;99.90;;;;;;5017473;28;20230;-78
2021/10/27 04:06:24;;;;;;;3.45;3.15;;;6.90;99.90;;;;;;5018364;28;20219;-77
2021/10/27 04:08:52;;;;;;;3.28;3.00;;;7.00;99.90;;;;;;5017691;28;20322;-77
2021/10/27 04:11:19;;;;;;;4.28;2.88;;;7.00;99.90;;;;;;5017988;28;20248;-77
2021/10/27 04:13:47;;;;;;;2.88;2.67;;;7.00;99.90;;;;;;5018161;28;20261;-77
2021/10/27 04:16:15;;;;;;;2.63;2.42;;;7.00;99.90;;;;;;5019274;28;20226;-78
2021/10/27 04:18:42;;;;;;;3.10;2.90;;;7.00;99.90;;;;;;5018119;28;20296;-78
2021/10/27 04:21:09;;;;;;;2.58;2.40;;;7.00;99.90;;;;;;5016617;28;20270;-77
2021/10/27 04:23:36;;;;;;;3.55;2.72;;;7.00;99.90;;;;;;5019817;28;20231;-78
2021/10/27 04:26:03;;;;;;;3.00;2.80;;;7.00;99.90;;;;;;5017145;28;20660;-77
2021/10/27 04:28:30;;;;;;;3.95;2.75;;;7.00;99.90;;;;;;5017558;28;20231;-78
2021/10/27 04:31:01;;;;;;;3.10;2.90;;;7.00;99.90;;;;;;5017507;28;20224;-78
2021/10/27 04:33:28;;;;;;;2.88;2.67;;;7.00;99.90;;;;;;5015936;28;22492;-79
2021/10/27 04:35:55;;;;;;;3.00;2.80;;;7.00;99.90;;;;;;5016752;28;20598;-78
2021/10/27 04:38:22;;;;;;;3.08;2.88;;;6.90;99.90;;;;;;5017808;28;20219;-78
2021/10/27 04:40:50;;;;;;;3.08;2.88;;;6.90;99.90;;;;;;5018279;28;20704;-78
2021/10/27 04:43:17;;;;;;;3.70;3.00;;;6.90;99.90;;;;;;5018546;28;20404;-77
2021/10/27 04:45:45;;;;;;;3.25;3.03;;;6.90;99.90;;;;;;5018165;28;20222;-77
2021/10/27 04:48:14;;;;;;;3.20;3.00;;;6.80;99.90;;;;;;5021449;28;20293;-78
2021/10/27 04:50:41;;;;;;;3.67;3.33;;;6.80;99.90;;;;;;5017791;28;20220;-77
2021/10/27 04:53:16;;;;;;;2.90;2.70;;;6.80;99.90;;;;;;5019322;28;20358;-77
2021/10/27 04:55:43;;;;;;;2.95;2.75;;;6.80;99.90;;;;;;5017803;28;20229;-78
2021/10/27 04:58:10;;;;;;;3.10;2.90;;;6.80;99.90;;;;;;5018458;28;20779;-77
2021/10/27 05:00:37;;;;;;;3.30;3.00;;;6.90;99.90;;;;;;5018146;28;20230;-77
2021/10/27 05:03:05;;;;;;;3.03;2.83;;;6.90;99.90;;;;;;5016860;28;20292;-78
2021/10/27 05:05:35;;;;;;;3.25;3.05;;;6.90;99.90;;;;;;5018322;28;20230;-77
2021/10/27 05:08:03;;;;;;;3.42;2.90;;;6.90;99.90;;;;;;5019099;28;20246;-79
2021/10/27 05:10:30;;;;;;;2.72;2.45;;;6.90;99.90;;;;;;5019854;28;20225;-78
2021/10/27 05:12:57;;;;;;;3.42;3.13;;;6.80;99.90;;;;;;5022446;28;20223;-78
2021/10/27 05:15:24;;;;;;;3.22;3.03;;;6.80;99.90;;;;;;5020360;28;20285;-78
2021/10/27 05:17:51;;;;;;;3.58;3.28;;;6.80;99.90;;;;;;5018566;28;20634;-78
2021/10/27 05:20:18;;;;;;;3.58;3.28;;;6.80;99.90;;;;;;5020623;28;20268;-77
2021/10/27 05:22:46;;;;;;;3.00;2.80;;;6.80;99.90;;;;;;5022815;28;20220;-78
2021/10/27 05:25:13;;;;;;;3.45;3.15;;;6.80;99.90;;;;;;5022803;28;20495;-78
2021/10/27 05:27:40;;;;;;;2.83;2.63;;;6.80;99.90;;;;;;5023168;28;20226;-77
2021/10/27 05:30:08;;;;;;;3.63;3.00;;;6.80;99.90;;;;;;5022401;28;20709;-79
2021/10/27 05:32:36;;;;;;;3.22;3.03;;;6.90;99.90;;;;;;5017511;28;20698;-77
2021/10/27 05:35:03;;;;;;;3.28;3.08;;;6.80;99.90;;;;;;5019198;28;20246;-79
2021/10/27 05:37:30;;;;;;;3.00;2.80;;;6.80;99.90;;;;;;5020143;28;20242;-78
2021/10/27 05:39:59;;;;;;;3.00;2.80;;;6.70;99.90;;;;;;5019230;28;20668;-77
2021/10/27 05:42:28;;;;;;;3.20;3.00;;;6.70;99.90;;;;;;5019368;28;20277;-79
2021/10/27 05:44:58;;;;;;;3.65;3.35;;;6.60;99.90;;;;;;5017633;28;20273;-77
2021/10/27 05:47:26;;;;;;;4.45;4.05;;;6.60;99.90;;;;;;5022781;28;20698;-78
2021/10/27 05:49:55;;;;;;;3.83;3.50;;;6.60;99.90;;;;;;5019651;28;20219;-77
2021/10/27 05:55:22;;;;;;;3.60;3.30;;;6.60;99.90;;;;;;5014128;28;20225;-77
2021/10/27 05:57:49;;;;;;;4.25;3.90;;;6.60;99.90;;;;;;5023141;28;20223;-78
2021/10/27 06:00:17;;;;;;;3.58;3.28;;;6.60;99.90;;;;;;5023157;28;20232;-79
2021/10/27 06:02:44;;;;;;;4.38;3.97;;;6.50;99.90;;;;;;5023011;28;20235;-79
2021/10/27 06:05:11;;;;;;;3.85;3.53;;;6.50;99.90;;;;;;5022108;28;20235;-78
2021/10/27 06:07:39;;;;;;;3.50;3.20;;;6.40;99.90;;;;;;5021072;28;20888;-78
2021/10/27 06:10:08;;;;;;;3.60;3.30;;;6.40;99.90;;;;;;5024666;28;20231;-78
2021/10/27 06:12:35;;;;;;;3.15;2.80;;;6.40;99.90;;;;;;5024833;28;20222;-79
2021/10/27 06:15:02;;;;;;;3.72;3.28;;;6.40;99.90;;;;;;5022237;28;20215;-79
2021/10/27 06:17:30;;;;;;;3.30;3.00;;;6.40;99.90;;;;;;5023132;28;20297;-78
2021/10/27 06:19:57;;;;;;;3.38;3.08;;;6.40;99.90;;;;;;5022228;28;20220;-77
2021/10/27 06:22:24;;;;;;;3.00;2.70;;;6.50;99.90;;;;;;5022936;28;20689;-78
2021/10/27 06:24:53;;;;;;;3.20;2.97;;;6.50;99.90;;;;;;5021697;28;20656;-77
2021/10/27 06:27:22;;;;;;;2.75;2.55;;;6.50;99.90;;;;;;5022710;28;20225;-78
2021/10/27 06:29:52;;;;;;;3.35;3.08;;;6.60;99.90;;;;;;5020591;28;20223;-78
2021/10/27 06:32:27;;;;;;;2.90;2.70;;;6.60;99.90;;;;;;5022795;28;20223;-78
2021/10/27 06:34:57;;;;;;;3.13;2.95;;;6.70;99.90;;;;;;5020608;28;20632;-78
2021/10/27 06:37:39;;;;;;;2.35;2.15;;;6.70;99.90;;;;;;5022822;28;20289;-79
2021/10/27 06:46:00;;;;;;;2.78;2.58;;;6.80;99.90;;;;;;5022859;28;20222;-77
2021/10/27 06:48:27;;;;;;;4.28;3.78;;;6.80;99.90;;;;;;5021724;28;20762;-78
2021/10/27 06:50:54;;;;;;;3.00;2.80;;;6.80;99.90;;;;;;5020898;28;20772;-78
2021/10/27 06:53:21;;;;;;;2.95;2.75;;;6.90;99.90;;;;;;5021592;28;20215;-78
2021/10/27 06:55:48;;;;;;;3.13;2.92;;;6.90;99.90;;;;;;5020219;28;20290;-77
2021/10/27 06:58:20;;;;;;;3.25;3.05;;;6.90;99.90;;;;;;5021250;28;20243;-78
2021/10/27 07:00:50;;;;;;;2.67;2.47;;;6.90;99.90;;;;;;5022411;28;20223;-79
2021/10/27 07:03:41;;;;;;;3.00;2.80;;;7.10;99.90;;;;;;5020667;28;20223;-78
2021/10/27 07:15:02;;;;;;;3.72;3.42;;;11.40;99.90;;;;;;4995735;28;20229;-78
2021/10/27 07:17:31;;;;;;;4.47;3.65;;;12.10;99.90;;;;;;5008056;28;20325;-77
2021/10/27 07:19:58;;;;;;;3.85;3.55;;;12.60;99.90;;;;;;5013790;28;20600;-79
2021/10/27 07:22:25;;;;;;;3.33;3.03;;;12.90;99.90;;;;;;5026203;28;20266;-78
2021/10/27 07:24:53;;;;;;;4.20;3.75;;;13.30;99.90;;;;;;5027005;28;20224;-79
2021/10/27 07:27:20;;;;;;;3.00;2.80;;;13.60;99.90;;;;;;5026545;28;20295;-80
2021/10/27 07:29:47;;;;;;;3.40;3.08;;;13.70;99.90;;;;;;5023452;28;20269;-79
2021/10/27 07:32:17;;;;;;;3.35;3.05;;;14.00;99.90;;;;;;5022855;28;20226;-78
2021/10/27 07:34:48;;;;;;;3.60;3.30;;;14.10;99.90;;;;;;5019356;28;20240;-78
2021/10/27 07:43:02;;;;;;;3.35;3.05;;;14.80;99.90;;;;;;4983291;28;20317;-78
2021/10/27 07:45:31;;;;;;;3.35;3.05;;;15.10;99.90;;;;;;5007993;28;20247;-78
2021/10/27 07:48:01;;;;;;;3.25;2.90;;;15.40;99.90;;;;;;5043170;23;20215;-82
2021/10/27 07:50:29;;;;;;;3.67;3.30;;;15.70;99.90;;;;;;5059587;28;20226;-82
2021/10/27 07:52:59;;;;;;;4.07;3.70;;;16.10;99.90;;;;;;5062389;28;20280;-84
2021/10/27 07:55:27;;;;;;;5.75;3.83;;;16.20;99.90;;;;;;5061188;28;20283;-81
2021/10/27 07:57:54;;;;;;;6.47;4.80;;;16.30;99.90;;;;;;5059417;28;20217;-82
2021/10/27 08:00:22;;;;;;;6.22;4.43;;;16.20;99.90;;;;;;5042508;28;20568;-84
2021/10/27 08:02:50;;;;;;;4.35;3.95;;;16.30;99.90;;;;;;5041025;28;20320;-82
2021/10/27 08:05:19;;;;;;;4.35;3.90;;;16.40;99.90;;;;;;5044202;28;20317;-85
2021/10/27 08:07:49;;;;;;;5.78;3.78;;;16.70;99.90;;;;;;5047947;28;20644;-81
2021/10/27 08:10:18;;;;;;;3.95;3.55;;;16.80;99.90;;;;;;5042258;28;20701;-81
2021/10/27 08:12:46;;;;;;;3.60;3.22;;;16.90;99.90;;;;;;5043579;28;20245;-83
2021/10/27 08:15:13;;;;;;;3.60;3.00;;;16.90;99.90;;;;;;5037988;28;20303;-81
2021/10/27 08:17:41;;;;;;;4.60;3.30;;;16.80;99.90;;;;;;5046367;28;20225;-83
2021/10/27 08:20:10;;;;;;;4.13;3.22;;;16.80;99.90;;;;;;5045717;28;20223;-81
2021/10/27 08:22:42;;;;;;;3.20;2.90;;;16.70;99.90;;;;;;5051855;28;20222;-83
2021/10/27 08:25:17;;;;;;;3.33;3.03;;;16.80;99.90;;;;;;5045510;28;20272;-79
2021/10/27 08:27:44;;;;;;;4.82;3.45;;;16.80;99.90;;;;;;5048168;28;20642;-81
2021/10/27 08:30:13;;;;;;;3.67;3.38;;;16.50;99.90;;;;;;5044225;28;20222;-79
2021/10/27 08:32:52;;;;;;;3.80;3.15;;;16.40;99.90;;;;;;5042936;28;20624;-84
2021/10/27 08:35:19;;;;;;;3.60;3.30;;;16.50;99.90;;;;;;5043745;28;20330;-79
2021/10/27 08:37:50;;;;;;;3.85;3.53;;;16.70;99.90;;;;;;5045238;28;20310;-80
2021/10/27 08:40:20;;;;;;;4.53;4.07;;;17.00;99.90;;;;;;5045140;28;20226;-80
2021/10/27 08:42:48;;;;;;;4.32;3.92;;;17.10;99.90;;;;;;5047574;28;20597;-80
2021/10/27 08:45:16;;;;;;;4.90;3.88;;;17.30;99.90;;;;;;5048860;28;20222;-79
2021/10/27 08:47:47;;;;;;;6.13;4.25;;;17.50;99.90;;;;;;5045344;28;20222;-77
2021/10/27 08:50:15;;;;;;;5.22;4.38;;;17.70;99.90;;;;;;5047215;28;20272;-81
2021/10/27 08:52:43;;;;;;;4.97;4.10;;;17.60;99.90;;;;;;5045545;28;20227;-79
2021/10/27 08:55:14;;;;;;;6.15;4.65;;;17.50;99.90;;;;;;5049126;28;20265;-83
2021/10/27 08:57:43;;;;;;;4.65;4.05;;;17.30;99.90;;;;;;5050168;28;20262;-82
2021/10/27 09:00:15;;;;;;;4.60;3.85;;;17.10;99.90;;;;;;5045862;28;20226;-80
2021/10/27 09:05:41;;;;;;;4.93;3.67;;;16.70;99.90;;;;;;5037865;28;20277;-80
2021/10/27 09:17:15;;;;;;;4.22;3.28;;;17.60;99.90;;;;;;5041241;28;20641;-80
2021/10/27 09:34:24;;;;;;;3.58;2.92;;;17.70;99.90;;;;;;5048502;28;20225;-80
2021/10/27 09:42:38;;;;;;;4.05;3.60;;;17.80;99.90;;;;;;5050926;28;20221;-80
2021/10/27 10:05:09;;;;;;;2.92;2.72;;;18.10;99.90;;;;;;5048565;28;20296;-81
2021/10/27 10:07:36;;;;;;;3.72;3.33;;;18.20;99.90;;;;;;5048478;28;20215;-81
2021/10/27 10:10:05;;;;;;;3.20;2.85;;;18.40;99.90;;;;;;5049497;28;20227;-83
2021/10/27 10:12:37;;;;;;;3.90;3.50;;;18.30;99.90;;;;;;5048563;28;20701;-79
2021/10/27 10:15:05;;;;;;;3.83;2.97;;;18.50;99.90;;;;;;5049640;28;20214;-80
2021/10/27 10:17:36;;;;;;;3.92;3.53;;;18.40;99.90;;;;;;5048137;28;20226;-80
2021/10/27 10:20:06;;;;;;;3.92;3.30;;;18.60;99.90;;;;;;5049331;28;20289;-79
2021/10/27 10:22:36;;;;;;;3.70;3.35;;;18.70;99.90;;;;;;5050157;28;20226;-81
2021/10/27 10:25:34;;;;;;;4.03;3.70;;;18.60;99.90;;;;;;5051437;28;20226;-80
2021/10/27 10:28:18;;;;;;;4.20;3.47;;;18.50;99.90;;;;;;5047380;28;20719;-79
2021/10/27 10:30:50;;;;;;;4.18;3.10;;;18.40;99.90;;;;;;5049305;28;20227;-80
2021/10/27 10:33:19;;;;;;;3.67;3.10;;;18.50;99.90;;;;;;5051627;28;20226;-81
2021/10/27 10:35:58;;;;;;;3.45;3.15;;;18.50;99.90;;;;;;5049116;28;20226;-78
2021/10/27 10:38:40;;;;;;;4.65;3.63;;;18.60;99.90;;;;;;5051902;28;20215;-78
2021/10/27 10:59:51;;;;;;;3.63;3.30;;;18.90;99.90;;;;;;5050599;28;20227;-80
2021/10/27 11:24:47;;;;;;;4.57;3.30;;;18.90;99.90;;;;;;5045287;28;20233;-77
2021/10/27 11:27:36;;;;;;;3.40;3.10;;;18.70;99.90;;;;;;5044784;28;20210;-77
2021/10/27 11:38:50;;;;;;;4.10;3.28;;;18.70;99.90;;;;;;5009621;28;20222;-76
2021/10/27 11:41:31;;;;;;;4.07;3.45;;;18.50;99.90;;;;;;5045708;28;20211;-77
2021/10/27 11:44:09;;;;;;;3.35;3.05;;;18.50;99.90;;;;;;5045901;28;20305;-76
2021/10/27 11:46:44;;;;;;;4.32;3.03;;;18.40;99.90;;;;;;5026275;28;20834;-77
2021/10/27 11:49:13;;;;;;;3.28;2.97;;;18.30;99.90;;;;;;5047932;28;20237;-77
2021/10/27 11:51:40;;;;;;;4.22;3.08;;;18.40;99.90;;;;;;5045748;28;20222;-77
2021/10/27 11:54:15;;;;;;;3.33;2.75;;;18.40;99.90;;;;;;5045834;28;20215;-77
2021/10/27 11:56:42;;;;;;;3.72;2.67;;;18.40;99.90;;;;;;5045127;28;20234;-77
2021/10/27 11:59:09;;;;;;;4.93;3.40;;;18.30;99.90;;;;;;5045680;28;20600;-77
2021/10/27 12:01:39;;;;;;;2.80;2.60;;;18.20;99.90;;;;;;5045858;28;20230;-77
2021/10/27 12:04:10;;;;;;;3.42;2.88;;;18.10;99.90;;;;;;5043217;28;20685;-77
2021/10/27 12:06:41;;;;;;;3.10;2.90;;;18.30;99.90;;;;;;5042825;28;20218;-77
2021/10/27 12:09:28;;;;;;;3.05;2.80;;;18.40;99.90;;;;;;5042093;28;20273;-77
2021/10/27 12:17:58;;;;;;;2.78;2.58;;;18.50;99.90;;;;;;5026535;28;20309;-78
2021/10/27 12:20:31;;;;;;;4.15;2.75;;;18.60;99.90;;;;;;5046267;28;20222;-77
2021/10/27 12:22:58;;;;;;;3.25;2.50;;;18.70;99.90;;;;;;5043052;28;20222;-77
2021/10/27 12:25:28;;;;;;;5.05;2.83;;;18.60;99.90;;;;;;5050136;28;20225;-78
2021/10/27 12:28:00;;;;;;;4.45;3.05;;;18.50;99.90;;;;;;5049138;28;20268;-77
2021/10/27 12:30:41;;;;;;;3.63;3.28;;;18.50;99.90;;;;;;5047106;28;20311;-78
2021/10/27 12:33:08;;;;;;;2.80;2.55;;;18.50;99.90;;;;;;5047107;28;20219;-77
2021/10/27 12:35:35;;;;;;;3.40;2.80;;;18.40;99.90;;;;;;5046029;28;20222;-78
2021/10/27 12:38:15;;;;;;;3.05;2.40;;;18.30;99.90;;;;;;5043354;28;20353;-77
2021/10/27 12:40:45;;;;;;;2.92;2.60;;;18.30;99.90;;;;;;5042250;28;20225;-78
2021/10/27 12:43:14;;;;;;;2.90;2.60;;;18.20;99.90;;;;;;5044589;28;20320;-77
2021/10/27 12:45:44;;;;;;;3.40;2.67;;;18.10;99.90;;;;;;5045625;28;20269;-77
2021/10/27 12:48:13;;;;;;;2.95;2.63;;;18.20;99.90;;;;;;5041826;28;20226;-77
2021/10/27 12:50:52;;;;;;;3.92;2.83;;;18.30;99.90;;;;;;5042023;28;20227;-78
2021/10/27 12:53:31;;;;;;;2.85;2.50;;;18.40;99.90;;;;;;5038779;28;20218;-79
2021/10/27 12:56:08;;;;;;;2.30;2.20;;;18.40;99.90;;;;;;5046319;28;20476;-75
2021/10/27 12:58:38;;;;;;;2.50;2.30;;;18.40;99.90;;;;;;5044400;28;20229;-78
2021/10/27 13:01:20;;;;;;;2.70;2.50;;;18.30;99.90;;;;;;5041763;28;20681;-77
2021/10/27 13:04:07;;;;;;;2.20;2.00;;;18.30;99.90;;;;;;5041531;28;20672;-75
2021/10/27 13:06:51;;;;;;;4.28;3.00;;;18.60;99.90;;;;;;5042517;28;20593;-78
2021/10/27 13:10:03;;;;;;;2.40;1.90;;;18.90;99.90;;;;;;5041191;28;20261;-77
2021/10/27 13:12:55;;;;;;;2.00;1.90;;;18.90;99.90;;;;;;5042759;28;20222;-77
2021/10/27 13:18:39;;;;;;;2.50;2.30;;;18.70;99.90;;;;;;4979492;28;20221;-76
2021/10/27 13:32:14;;;;;;;3.28;2.22;;;18.10;99.90;;;;;;5016547;28;20218;-76
2021/10/27 13:34:41;;;;;;;2.38;1.67;;;18.10;99.90;;;;;;5046201;28;20222;-77
2021/10/27 13:37:09;;;;;;;2.22;2.03;;;18.10;99.90;;;;;;5042554;28;20670;-77
2021/10/27 13:39:37;;;;;;;2.75;2.33;;;18.10;99.90;;;;;;5044834;28;20231;-76
2021/10/27 13:42:10;;;;;;;2.90;2.60;;;18.00;99.90;;;;;;5041037;28;20589;-75
2021/10/27 13:44:45;;;;;;;2.50;2.30;;;17.90;99.90;;;;;;5043986;28;20592;-73
2021/10/27 13:47:23;;;;;;;2.25;2.05;;;18.00;99.90;;;;;;5038308;28;20245;-74
2021/10/27 13:57:41;;;;;;;1.95;1.75;;;18.20;99.90;;;;;;5089290;22;20244;-79
2021/10/27 14:06:38;;;;;;;2.22;1.98;;;18.30;99.90;;;;;;5033799;28;20225;-78
2021/10/27 14:09:12;;;;;;;2.90;2.53;;;18.20;99.90;;;;;;5017409;28;20231;-78
2021/10/27 14:11:46;;;;;;;2.00;1.90;;;18.10;99.90;;;;;;5032242;28;20222;-77
2021/10/27 14:14:19;;;;;;;3.15;2.03;;;18.00;99.90;;;;;;5026035;28;20234;-79
2021/10/27 14:20:12;;;;;;;2.67;2.20;;;17.80;99.90;;;;;;5033017;28;20599;-79
2021/10/27 14:39:45;;;;;;;3.45;3.15;;;17.10;99.90;;;;;;4982558;28;20309;-78
2021/10/27 14:48:09;;;;;;;2.47;2.25;;;16.30;99.90;;;;;;5019240;28;20285;-77
2021/10/27 14:59:13;;;;;;;2.70;2.50;;;15.40;99.90;;;;;;5048361;28;20244;-78
2021/10/27 15:20:55;;;;;;;1.98;1.88;;;15.00;99.90;;;;;;5040208;28;20642;-78
2021/10/27 15:23:33;;;;;;;1.92;1.60;;;14.90;99.90;;;;;;5045619;28;20216;-79
2021/10/27 15:28:58;;;;;;;2.60;2.40;;;14.80;99.90;;;;;;5048529;28;20723;-77
2021/10/27 15:31:32;;;;;;;2.40;2.30;;;14.80;99.90;;;;;;5041751;28;20230;-78
2021/10/27 15:34:20;;;;;;;2.40;2.20;;;14.70;99.90;;;;;;5048350;28;20241;-79
2021/10/27 15:36:56;;;;;;;2.13;1.92;;;14.70;99.90;;;;;;5045067;28;20215;-78
2021/10/27 15:42:29;;;;;;;2.30;2.10;;;14.50;99.90;;;;;;5039568;28;20246;-78
2021/10/27 15:50:45;;;;;;;1.90;1.80;;;14.20;99.90;;;;;;4969205;28;20275;-79
2021/10/27 15:53:12;;;;;;;2.75;1.90;;;14.20;99.90;;;;;;5022142;28;20225;-78
2021/10/27 15:55:41;;;;;;;2.00;1.90;;;14.10;99.90;;;;;;5040494;28;20227;-79
2021/10/27 15:58:08;;;;;;;2.17;2.08;;;14.10;99.90;;;;;;5049285;28;20230;-79
2021/10/27 16:00:38;;;;;;;2.42;2.22;;;14.10;99.90;;;;;;5045252;28;20255;-79
2021/10/27 16:03:06;;;;;;;2.75;2.55;;;14.10;99.90;;;;;;5054808;28;20678;-80
2021/10/27 16:05:38;;;;;;;2.78;2.25;;;14.10;99.90;;;;;;5029756;28;20230;-79
2021/10/27 16:08:06;;;;;;;2.50;2.30;;;14.00;99.90;;;;;;5049099;28;20743;-80
2021/10/27 16:10:34;;;;;;;2.30;2.20;;;14.00;99.90;;;;;;5044946;28;20346;-79
2021/10/27 16:13:03;;;;;;;3.20;2.03;;;13.80;99.90;;;;;;5047173;28;20273;-78
2021/10/27 16:15:51;;;;;;;2.30;2.10;;;13.70;99.90;;;;;;5041008;28;20223;-78
2021/10/27 16:26:01;;;;;;;2.75;2.55;;;13.50;99.90;;;;;;4856348;28;20230;-78
2021/10/27 16:39:11;;;;;;;7.93;6.38;;;13.20;99.90;;;;;;4980280;23;21010;-78
2021/10/27 16:41:39;;;;;;;6.18;5.18;;;13.20;99.90;;;;;;5027282;28;20227;-78
2021/10/27 16:44:07;;;;;;;4.75;4.28;;;13.10;99.90;;;;;;5029010;28;20234;-78
2021/10/27 16:46:34;;;;;;;4.18;3.83;;;13.00;99.90;;;;;;5027376;28;20253;-78
2021/10/27 16:49:01;;;;;;;3.38;3.08;;;13.00;99.90;;;;;;5019502;28;20308;-77
2021/10/27 16:51:29;;;;;;;3.30;3.00;;;13.00;99.90;;;;;;5029150;28;20238;-78
2021/10/27 16:54:00;;;;;;;3.28;2.97;;;13.00;99.90;;;;;;5029713;28;20574;-78
2021/10/27 16:56:29;;;;;;;3.15;2.90;;;12.90;99.90;;;;;;5028953;28;20314;-78
2021/10/27 16:58:56;;;;;;;3.75;2.80;;;12.90;99.90;;;;;;5029924;28;20357;-77
2021/10/27 17:01:25;;;;;;;2.63;2.42;;;12.90;99.90;;;;;;5029353;28;20226;-78
2021/10/27 17:03:53;;;;;;;2.65;2.45;;;12.80;99.90;;;;;;5030041;28;20280;-77
2021/10/27 17:06:20;;;;;;;3.00;2.80;;;12.80;99.90;;;;;;5029243;28;20215;-77
2021/10/27 17:08:47;;;;;;;2.90;2.70;;;12.70;99.90;;;;;;5028885;28;20233;-78